Captain Ed — WDF6338 — position and weather

sailwx.info

Track history (hours):
 
Tides and Currents Weather Stations Pressure Air Temp Water Temp Dewpoint Dewpoint Depression Visibility Wind Speed Wind Dir Waves Ship Positions

Captain Ed

Owner: Norfolk Dredging Company, Chesapeake, VA. More information available from US FCC via Universal Licensing System and Coast Guard Vessel Documentation Center.

Last reported at 2015-Mar-24 16:11 UTC. Time now 2015-Mar-27 22:14 UTC.
Position N 38°00' W 076°14'.

Length 22 m; draft 3 m.

Type: Tug. MMSI: 367473210.

Date/timePositionNaut miles runAvg speedWind from/ knotsBaromVisibWave heightAir tempDewpointWater temp
2015-Mar-24 16:11N 38°00' W 076°14'6 8.8
2015-Mar-24 15:29N 38°06' W 076°16'  
2015-Mar-21 20:21N 38°57' W 076°25'24 8.1
2015-Mar-21 17:23N 39°19' W 076°13'0 0.5
2015-Mar-21 16:31N 39°19' W 076°12'0 0.0
2015-Mar-21 15:26N 39°19' W 076°12'0 0.2
2015-Mar-21 14:33N 39°20' W 076°12'0 0.4
2015-Mar-21 13:33N 39°19' W 076°12'0 0.2
2015-Mar-21 12:33N 39°20' W 076°12'0 0.4
2015-Mar-21 11:33N 39°19' W 076°13'0 0.0
2015-Mar-21 10:33N 39°19' W 076°13'0 0.0
2015-Mar-21 09:33N 39°19' W 076°13'0 0.4
2015-Mar-21 08:33N 39°20' W 076°12'0 0.4
2015-Mar-21 07:33N 39°19' W 076°13'0 0.0
2015-Mar-21 06:33N 39°19' W 076°13'0 0.0
2015-Mar-21 05:33N 39°19' W 076°13'0 0.1
2015-Mar-21 04:33N 39°19' W 076°13'0 0.0
2015-Mar-21 03:33N 39°19' W 076°13'0 0.0
2015-Mar-21 02:33N 39°19' W 076°13'0 0.0
2015-Mar-21 01:33N 39°19' W 076°13'0 0.0
2015-Mar-21 00:33N 39°19' W 076°12'3 2.6
2015-Mar-20 23:33N 39°17' W 076°14'6 5.3
2015-Mar-20 22:26N 39°14' W 076°20'4 3.8
2015-Mar-20 21:30N 39°12' W 076°24'4 3.6
2015-Mar-20 20:29N 39°12' W 076°29'4 4.8
2015-Mar-20 19:33N 39°13' W 076°34'1 0.8
2015-Mar-20 18:32N 39°13' W 076°35'0 0.0
2015-Mar-20 16:03N 39°13' W 076°35'0 0.0
2015-Mar-20 15:28N 39°13' W 076°35'6 6.9
2015-Mar-20 14:33N 39°11' W 076°27'13 8.7
2015-Mar-20 13:05N 39°18' W 076°13'1 0.4
2015-Mar-20 09:32N 39°19' W 076°12'0 0.2
2015-Mar-20 08:32N 39°20' W 076°12'0 0.0
2015-Mar-20 07:03N 39°20' W 076°12'0 0.0
2015-Mar-20 06:33N 39°20' W 076°12'0 0.3
2015-Mar-20 05:33N 39°19' W 076°12'0 0.0
2015-Mar-20 04:33N 39°19' W 076°12'0 0.3
2015-Mar-20 03:31N 39°20' W 076°12'0 0.0
2015-Mar-20 02:16N 39°20' W 076°12'0 0.0
2015-Mar-20 01:24N 39°20' W 076°12'0 0.1
2015-Mar-20 00:23N 39°20' W 076°12'0 0.0
2015-Mar-19 23:30N 39°20' W 076°12'0 0.1
2015-Mar-19 22:31N 39°20' W 076°12'0 0.4
2015-Mar-19 21:24N 39°19' W 076°13'0 0.3
2015-Mar-19 20:14N 39°20' W 076°12'0 0.2
2015-Mar-19 19:09N 39°19' W 076°12'0 0.5
2015-Mar-19 18:33N 39°20' W 076°12'0 0.1
2015-Mar-19 17:32N 39°20' W 076°12'0 0.0
2015-Mar-19 16:29N 39°20' W 076°12'0 0.1
2015-Mar-19 14:28N 39°20' W 076°12'0 0.4
2015-Mar-19 13:33N 39°19' W 076°13'0 0.0
2015-Mar-19 12:33N 39°19' W 076°13'0 0.2
2015-Mar-19 11:05N 39°20' W 076°12'0 0.6
2015-Mar-19 10:31N 39°19' W 076°13'0 0.0
2015-Mar-19 09:31N 39°19' W 076°13'0 0.0
2015-Mar-19 08:33N 39°19' W 076°13'0 0.4
2015-Mar-19 07:32N 39°20' W 076°12'0 0.4
2015-Mar-19 06:33N 39°19' W 076°13'0 0.1
2015-Mar-19 04:30N 39°19' W 076°13'0 0.3
2015-Mar-19 03:29N 39°20' W 076°12'0 0.2
2015-Mar-19 01:10N 39°19' W 076°13'0 0.0
2015-Mar-19 00:20N 39°19' W 076°13'1 0.5
2015-Mar-18 23:23N 39°20' W 076°12'1 0.4
2015-Mar-18 22:10N 39°19' W 076°13'0 0.1
2015-Mar-18 18:28N 39°19' W 076°12'0 0.1
2015-Mar-18 15:20N 39°20' W 076°12'1 0.2
2015-Mar-18 12:32N 39°19' W 076°13'0 0.0
2015-Mar-18 11:33N 39°19' W 076°13'0 0.3
2015-Mar-18 10:26N 39°19' W 076°12'0 0.1
2015-Mar-18 07:22N 39°20' W 076°12'7 0.8
2015-Mar-17 23:04N 39°13' W 076°15'17 4.6
2015-Mar-17 19:19N 38°57' W 076°24'6 8.5
2015-Mar-17 18:33N 38°51' W 076°27'7 0.9
2015-Mar-17 10:30N 38°45' W 076°22'0 0.0
2015-Mar-17 09:03N 38°45' W 076°22'0 0.0
2015-Mar-17 08:10N 38°45' W 076°22'0 0.0
2015-Mar-17 07:14N 38°45' W 076°22'7 0.4
2015-Mar-16 15:24N 38°50' W 076°27'4 4.6
2015-Mar-16 14:34N 38°51' W 076°32'1 0.6
2015-Mar-16 13:34N 38°51' W 076°32'0 0.0
2015-Mar-16 12:34N 38°51' W 076°32'3 2.9
2015-Mar-16 11:33N 38°52' W 076°29'3 0.2
2015-Mar-15 18:19N 38°50' W 076°26'6 7.6
2015-Mar-15 17:29N 38°56' W 076°25'24 7.7
2015-Mar-15 14:22N 39°18' W 076°13'1 1.8
2015-Mar-15 13:33N 39°20' W 076°12'0 0.0
2015-Mar-15 12:33N 39°20' W 076°12'0 0.0
2015-Mar-15 11:34N 39°20' W 076°12'0 0.0
2015-Mar-15 10:33N 39°20' W 076°12'0 0.0
2015-Mar-15 09:33N 39°20' W 076°12'0 0.0
2015-Mar-15 08:33N 39°20' W 076°12'0 0.0
2015-Mar-15 07:33N 39°20' W 076°12'0 0.0
2015-Mar-15 06:33N 39°20' W 076°12'0 0.0
2015-Mar-15 05:33N 39°20' W 076°12'0 0.3
2015-Mar-15 04:33N 39°19' W 076°12'1 0.2
2015-Mar-15 01:10N 39°19' W 076°13'0 0.1
2015-Mar-15 00:29N 39°19' W 076°13'0 0.0
2015-Mar-14 23:33N 39°19' W 076°13'0 0.0
2015-Mar-14 22:22N 39°19' W 076°13'0 0.0
2015-Mar-14 21:33N 39°19' W 076°13'1 0.8
2015-Mar-14 20:33N 39°20' W 076°12'0 0.0
2015-Mar-14 19:33N 39°20' W 076°12'0 0.0
2015-Mar-14 18:16N 39°20' W 076°12'0 0.1
2015-Mar-14 17:32N 39°20' W 076°12'  
Track history (hours):
 
Tides and Currents Weather Stations Pressure Air Temp Water Temp Dewpoint Dewpoint Depression Visibility Wind Speed Wind Dir Waves Ship Positions

Captain Ed

Owner: Norfolk Dredging Company, Chesapeake, VA. More information available from US FCC via Universal Licensing System and Coast Guard Vessel Documentation Center.

Last reported at 2015-Mar-24 16:11 UTC. Time now 2015-Mar-27 22:14 UTC.
Position N 38°00' W 076°14'.

Length 22 m; draft 3 m.

Type: Tug. MMSI: 367473210.

Date/timePositionNaut miles runAvg speedWind from/ knotsBaromVisibWave heightAir tempDewpointWater temp
2015-Mar-24 16:11N 38°00' W 076°14'6 8.8
2015-Mar-24 15:29N 38°06' W 076°16'  
2015-Mar-21 20:21N 38°57' W 076°25'24 8.1
2015-Mar-21 17:23N 39°19' W 076°13'0 0.5
2015-Mar-21 16:31N 39°19' W 076°12'0 0.0
2015-Mar-21 15:26N 39°19' W 076°12'0 0.2
2015-Mar-21 14:33N 39°20' W 076°12'0 0.4
2015-Mar-21 13:33N 39°19' W 076°12'0 0.2
2015-Mar-21 12:33N 39°20' W 076°12'0 0.4
2015-Mar-21 11:33N 39°19' W 076°13'0 0.0
2015-Mar-21 10:33N 39°19' W 076°13'0 0.0
2015-Mar-21 09:33N 39°19' W 076°13'0 0.4
2015-Mar-21 08:33N 39°20' W 076°12'0 0.4
2015-Mar-21 07:33N 39°19' W 076°13'0 0.0
2015-Mar-21 06:33N 39°19' W 076°13'0 0.0
2015-Mar-21 05:33N 39°19' W 076°13'0 0.1
2015-Mar-21 04:33N 39°19' W 076°13'0 0.0
2015-Mar-21 03:33N 39°19' W 076°13'0 0.0
2015-Mar-21 02:33N 39°19' W 076°13'0 0.0
2015-Mar-21 01:33N 39°19' W 076°13'0 0.0
2015-Mar-21 00:33N 39°19' W 076°12'3 2.6
2015-Mar-20 23:33N 39°17' W 076°14'6 5.3
2015-Mar-20 22:26N 39°14' W 076°20'4 3.8
2015-Mar-20 21:30N 39°12' W 076°24'4 3.6
2015-Mar-20 20:29N 39°12' W 076°29'4 4.8
2015-Mar-20 19:33N 39°13' W 076°34'1 0.8
2015-Mar-20 18:32N 39°13' W 076°35'0 0.0
2015-Mar-20 16:03N 39°13' W 076°35'0 0.0
2015-Mar-20 15:28N 39°13' W 076°35'6 6.9
2015-Mar-20 14:33N 39°11' W 076°27'13 8.7
2015-Mar-20 13:05N 39°18' W 076°13'1 0.4
2015-Mar-20 09:32N 39°19' W 076°12'0 0.2
2015-Mar-20 08:32N 39°20' W 076°12'0 0.0
2015-Mar-20 07:03N 39°20' W 076°12'0 0.0
2015-Mar-20 06:33N 39°20' W 076°12'0 0.3
2015-Mar-20 05:33N 39°19' W 076°12'0 0.0
2015-Mar-20 04:33N 39°19' W 076°12'0 0.3
2015-Mar-20 03:31N 39°20' W 076°12'0 0.0
2015-Mar-20 02:16N 39°20' W 076°12'0 0.0
2015-Mar-20 01:24N 39°20' W 076°12'0 0.1
2015-Mar-20 00:23N 39°20' W 076°12'0 0.0
2015-Mar-19 23:30N 39°20' W 076°12'0 0.1
2015-Mar-19 22:31N 39°20' W 076°12'0 0.4
2015-Mar-19 21:24N 39°19' W 076°13'0 0.3
2015-Mar-19 20:14N 39°20' W 076°12'0 0.2
2015-Mar-19 19:09N 39°19' W 076°12'0 0.5
2015-Mar-19 18:33N 39°20' W 076°12'0 0.1
2015-Mar-19 17:32N 39°20' W 076°12'0 0.0
2015-Mar-19 16:29N 39°20' W 076°12'0 0.1
2015-Mar-19 14:28N 39°20' W 076°12'0 0.4
2015-Mar-19 13:33N 39°19' W 076°13'0 0.0
2015-Mar-19 12:33N 39°19' W 076°13'0 0.2
2015-Mar-19 11:05N 39°20' W 076°12'0 0.6
2015-Mar-19 10:31N 39°19' W 076°13'0 0.0
2015-Mar-19 09:31N 39°19' W 076°13'0 0.0
2015-Mar-19 08:33N 39°19' W 076°13'0 0.4
2015-Mar-19 07:32N 39°20' W 076°12'0 0.4
2015-Mar-19 06:33N 39°19' W 076°13'0 0.1
2015-Mar-19 04:30N 39°19' W 076°13'0 0.3
2015-Mar-19 03:29N 39°20' W 076°12'0 0.2
2015-Mar-19 01:10N 39°19' W 076°13'0 0.0
2015-Mar-19 00:20N 39°19' W 076°13'1 0.5
2015-Mar-18 23:23N 39°20' W 076°12'1 0.4
2015-Mar-18 22:10N 39°19' W 076°13'0 0.1
2015-Mar-18 18:28N 39°19' W 076°12'0 0.1
2015-Mar-18 15:20N 39°20' W 076°12'1 0.2
2015-Mar-18 12:32N 39°19' W 076°13'0 0.0
2015-Mar-18 11:33N 39°19' W 076°13'0 0.3
2015-Mar-18 10:26N 39°19' W 076°12'0 0.1
2015-Mar-18 07:22N 39°20' W 076°12'7 0.8
2015-Mar-17 23:04N 39°13' W 076°15'17 4.6
2015-Mar-17 19:19N 38°57' W 076°24'6 8.5
2015-Mar-17 18:33N 38°51' W 076°27'7 0.9
2015-Mar-17 10:30N 38°45' W 076°22'0 0.0
2015-Mar-17 09:03N 38°45' W 076°22'0 0.0
2015-Mar-17 08:10N 38°45' W 076°22'0 0.0
2015-Mar-17 07:14N 38°45' W 076°22'7 0.4
2015-Mar-16 15:24N 38°50' W 076°27'4 4.6
2015-Mar-16 14:34N 38°51' W 076°32'1 0.6
2015-Mar-16 13:34N 38°51' W 076°32'0 0.0
2015-Mar-16 12:34N 38°51' W 076°32'3 2.9
2015-Mar-16 11:33N 38°52' W 076°29'3 0.2
2015-Mar-15 18:19N 38°50' W 076°26'6 7.6
2015-Mar-15 17:29N 38°56' W 076°25'24 7.7
2015-Mar-15 14:22N 39°18' W 076°13'1 1.8
2015-Mar-15 13:33N 39°20' W 076°12'0 0.0
2015-Mar-15 12:33N 39°20' W 076°12'0 0.0
2015-Mar-15 11:34N 39°20' W 076°12'0 0.0
2015-Mar-15 10:33N 39°20' W 076°12'0 0.0
2015-Mar-15 09:33N 39°20' W 076°12'0 0.0
2015-Mar-15 08:33N 39°20' W 076°12'0 0.0
2015-Mar-15 07:33N 39°20' W 076°12'0 0.0
2015-Mar-15 06:33N 39°20' W 076°12'0 0.0
2015-Mar-15 05:33N 39°20' W 076°12'0 0.3
2015-Mar-15 04:33N 39°19' W 076°12'1 0.2
2015-Mar-15 01:10N 39°19' W 076°13'0 0.1
2015-Mar-15 00:29N 39°19' W 076°13'0 0.0
2015-Mar-14 23:33N 39°19' W 076°13'0 0.0
2015-Mar-14 22:22N 39°19' W 076°13'0 0.0
2015-Mar-14 21:33N 39°19' W 076°13'1 0.8
2015-Mar-14 20:33N 39°20' W 076°12'0 0.0
2015-Mar-14 19:33N 39°20' W 076°12'0 0.0
2015-Mar-14 18:16N 39°20' W 076°12'0 0.1
2015-Mar-14 17:32N 39°20' W 076°12'  

Dump ship's entire track history